Terminal Aerodrome Forecast
Issued by NWS Northern Indiana

Home | Current Version | Previous Version | Text Only | Print | Product List | Glossary Off
Versions: 1 2 3 4 5 6 7 8 9 10 11 12 13 14

000
FTUS43 KIWX 301720
TAFFWA
TAF
KFWA 301720Z 3018/0118 25008KT P6SM BKN025
     FM301900 27008KT P6SM SCT025
     FM010200 28008KT P6SM BKN250
     FM010600 29005KT 4SM BR SCT020
      TEMPO 0108/0112 3/4SM BR BKN005
     FM011500 29008KT P6SM SCT030=

USA.gov is the U.S. government's official web portal to all federal, state and local government web resources and services.